Aérodrome :
LOGIN :

S'inscrire | Disclaimer

   EN    FR    IT 

 










Légende :    VFR   VFR Marginal   IFR   IFR Intensif   IFR Très Intensif
Visi : 
Plafond : 
>= 8 km
>= 3000ft
5 à 8 km
1000 à 3000 ft
1500m à 5 km
500 à 1000 ft
800 à 1500m
200 à 500 ft
< 800m
< 200 ft
Symboles :   Orages  Brouillard  Fortes neiges  Fortes précipitations  Vent > 20 kt
SIGMETs :   Divers  Orages  Givrage  Turbulence  Onde Orograph.  Cendres Volcan.






- Altitude de l'aérodrome : 7 ft
- Code IATA : OSY


ENNM - Namsos Høknesøra

DERNIER METAR :
  • 212020Z 26018G30KT 9999 -SHRASNGS FEW018CB SCT025 BKN045 04/M04 Q1009

METARs EXPIRÉS :
  • 211950Z 25022G36KT 9999 VCSH FEW018CB SCT025 BKN045 03/M04 Q1009
  • 211920Z 27020G40KT 9999 VCSH FEW018CB SCT025 BKN045 04/M00 Q1009
  • 211850Z 26018G32KT 9999 -SHRA FEW018CB SCT025 BKN045 03/M00 Q1008
  • 211750Z 24019G30KT 9999 VCSH FEW018CB SCT025 BKN045 02/M00 Q1008

TAF N/A



MET'MAP, la Météo Aéronautique d'un coup d'oeil ! - Copyright ORBIFLY Décembre 2007 - Disclaimer

ORBIFLY MET'MAP TEAM :

Programmation & Développement : Alexandra Zaïnal
Sur une idée originale de : Baudouin d'Aumeries
Assistance à la programmation : Marc-Olivier Méhu
Soutien technique & logistique : Manuel Goepfert

Contact : metmap@orbifly.com




SOURCES & CREDITS :

   NOAA